Language: 


Des rapports , des résumés tant et plus, au choix de chacun....


Données Historiques de Météogheer
Journalier Rapport pour Février 24, 2017 Unitée:  Les deux    Impériale   Métrique
Suivant Jour »
Journalier Hebdomadaire Mensuel Annuel Sur mesure
  Max: Min: Moyenne:
Température: 47.5 °F /  8.6 °C 31.8 °F /  -0.1 °C 40.8 °F /  4.9 °C
Point de rosée: 42.6 °F /  5.9 °C 29.5 °F /  -1.4 °C 36 °F /  2.2 °C
Humidité: 96% 69% 83%
Vent: 11.4mph /  18.3km/h - 3.4mph /  5.4km/h
Rafales: 15.4mph /  24.8km/h - -
Vent- - West
Pression: 30.2 in /  1021.9 hPa 29.6 in /  1003.9 hPa -
Pluie: 0.18 in /  4.6 mm    
Historical Graphs
 
 
Données tabulaires pour Février 24, 2017
Heure Température Point de rosée Pression Vent Vent Rafales Humidité Pluie Taux (Horaire) Conditions
00:03 45 °F /  7.2 °C 35.2 °F /  1.8 °C 29.6in /  1003.9hPa North 2.9mph /  4.7km/h 9.4mph /  15.1km/h 69% 0in /  0.0mm
00:08 45 °F /  7.2 °C 35.8 °F /  2.1 °C 29.7in /  1005.0hPa NW 8.1mph /  13.0km/h 8.5mph /  13.7km/h 70% 0in /  0.0mm
00:13 45 °F /  7.2 °C 35.8 °F /  2.1 °C 29.7in /  1005.0hPa West 6.3mph /  10.1km/h 8.5mph /  13.7km/h 70% 0in /  0.0mm
00:18 45 °F /  7.2 °C 35.8 °F /  2.1 °C 29.7in /  1005.0hPa West 6.3mph /  10.1km/h 10.1mph /  16.3km/h 70% 0in /  0.0mm
00:23 45 °F /  7.2 °C 36 °F /  2.2 °C 29.7in /  1005.0hPa WNW 8.5mph /  13.7km/h 10.1mph /  16.3km/h 71% 0in /  0.0mm
00:28 45 °F /  7.2 °C 35.8 °F /  2.1 °C 29.7in /  1005.0hPa WNW 3.6mph /  5.8km/h 10.5mph /  16.9km/h 70% 0in /  0.0mm
00:33 44.8 °F /  7.1 °C 36 °F /  2.2 °C 29.7in /  1005.0hPa West 3.4mph /  5.5km/h 12.8mph /  20.6km/h 71% 0in /  0.0mm
00:38 44.4 °F /  6.9 °C 35.8 °F /  2.1 °C 29.7in /  1005.0hPa North 7.6mph /  12.2km/h 12.8mph /  20.6km/h 71% 0in /  0.0mm
00:42 44.2 °F /  6.8 °C 35.4 °F /  1.9 °C 29.7in /  1005.0hPa WNW 6.5mph /  10.5km/h 10.1mph /  16.3km/h 71% 0in /  0.0mm
00:48 44.2 °F /  6.8 °C 35.4 °F /  1.9 °C 29.7in /  1005.0hPa West 7.6mph /  12.2km/h 10.5mph /  16.9km/h 71% 0in /  0.0mm
00:53 44.2 °F /  6.8 °C 35.8 °F /  2.1 °C 29.7in /  1006.0hPa West 7.8mph /  12.6km/h 10.5mph /  16.9km/h 72% 0in /  0.0mm
00:58 44.2 °F /  6.8 °C 36.1 °F /  2.3 °C 29.7in /  1006.0hPa North 3.8mph /  6.1km/h 10.5mph /  16.9km/h 73% 0in /  0.0mm
01:03 44.2 °F /  6.8 °C 36.1 °F /  2.3 °C 29.7in /  1006.0hPa South 10.7mph /  17.2km/h 12.3mph /  19.8km/h 73% 0in /  0.0mm
01:08 44.2 °F /  6.8 °C 36.1 °F /  2.3 °C 29.7in /  1006.0hPa WSW 6.3mph /  10.1km/h 12.3mph /  19.8km/h 73% 0in /  0.0mm
01:13 44.2 °F /  6.8 °C 36.1 °F /  2.3 °C 29.7in /  1006.0hPa WNW 8.5mph /  13.7km/h 13.2mph /  21.2km/h 73% 0in /  0.0mm
01:18 44.2 °F /  6.8 °C 36.1 °F /  2.3 °C 29.7in /  1006.0hPa WNW 7.8mph /  12.6km/h 13.2mph /  21.2km/h 73% 0in /  0.0mm
01:23 44.1 °F /  6.7 °C 36 °F /  2.2 °C 29.7in /  1006.0hPa West 3.1mph /  5.0km/h 13mph /  20.9km/h 73% 0in /  0.0mm
01:28 44.1 °F /  6.7 °C 36 °F /  2.2 °C 29.7in /  1006.0hPa West 6mph /  9.7km/h 11mph /  17.7km/h 73% 0in /  0.0mm
01:33 44.1 °F /  6.7 °C 36.1 °F /  2.3 °C 29.7in /  1006.0hPa NNW 7.8mph /  12.6km/h 10.5mph /  16.9km/h 74% 0in /  0.0mm
01:38 44.1 °F /  6.7 °C 36.1 °F /  2.3 °C 29.7in /  1007.0hPa West 8.9mph /  14.3km/h 12.5mph /  20.1km/h 74% 0in /  0.0mm
01:43 44.1 °F /  6.7 °C 36.1 °F /  2.3 °C 29.7in /  1007.0hPa West 5.4mph /  8.7km/h 12.5mph /  20.1km/h 74% 0in /  0.0mm
01:48 44.1 °F /  6.7 °C 36.1 °F /  2.3 °C 29.7in /  1007.0hPa West 4mph /  6.4km/h 8.9mph /  14.3km/h 74% 0in /  0.0mm
01:53 43.9 °F /  6.6 °C 36.1 °F /  2.3 °C 29.7in /  1007.0hPa WNW 2.9mph /  4.7km/h 8.5mph /  13.7km/h 74% 0in /  0.0mm
01:58 43.9 °F /  6.6 °C 36.1 °F /  2.3 °C 29.7in /  1007.0hPa West 2.9mph /  4.7km/h 8.5mph /  13.7km/h 74% 0in /  0.0mm
02:03 43.5 °F /  6.4 °C 36 °F /  2.2 °C 29.7in /  1007.0hPa West 6.3mph /  10.1km/h 8.5mph /  13.7km/h 74% 0in /  0.0mm
02:08 43.5 °F /  6.4 °C 36.1 °F /  2.3 °C 29.7in /  1007.0hPa WNW 6.5mph /  10.5km/h 9.6mph /  15.4km/h 75% 0in /  0.0mm
02:13 43.5 °F /  6.4 °C 36.1 °F /  2.3 °C 29.7in /  1007.0hPa NW 5.4mph /  8.7km/h 12.1mph /  19.5km/h 75% 0in /  0.0mm
02:18 43.5 °F /  6.4 °C 36.1 °F /  2.3 °C 29.7in /  1007.0hPa West 7.8mph /  12.6km/h 12.1mph /  19.5km/h 75% 0in /  0.0mm
02:23 43.5 °F /  6.4 °C 36.1 °F /  2.3 °C 29.7in /  1007.0hPa West 10.1mph /  16.3km/h 10.3mph /  16.6km/h 75% 0in /  0.0mm
02:28 43.5 °F /  6.4 °C 36.1 °F /  2.3 °C 29.7in /  1007.0hPa West 8.7mph /  14.0km/h 11mph /  17.7km/h 75% 0in /  0.0mm
02:33 43.3 °F /  6.3 °C 36 °F /  2.2 °C 29.7in /  1007.0hPa WSW 6mph /  9.7km/h 12.3mph /  19.8km/h 75% 0in /  0.0mm
02:38 43.2 °F /  6.2 °C 36.1 °F /  2.3 °C 29.7in /  1007.0hPa WSW 8.5mph /  13.7km/h 13mph /  20.9km/h 76% 0in /  0.0mm
02:43 43 °F /  6.1 °C 36 °F /  2.2 °C 29.7in /  1007.0hPa West 8.7mph /  14.0km/h 13mph /  20.9km/h 76% 0in /  0.0mm
02:48 42.8 °F /  6.0 °C 35.8 °F /  2.1 °C 29.7in /  1007.0hPa West 8.5mph /  13.7km/h 14.8mph /  23.8km/h 76% 0in /  0.0mm
02:53 42.6 °F /  5.9 °C 35.4 °F /  1.9 °C 29.7in /  1007.0hPa West 6.7mph /  10.8km/h 14.8mph /  23.8km/h 76% 0in /  0.0mm
02:58 42.4 °F /  5.8 °C 35.4 °F /  1.9 °C 29.7in /  1007.0hPa West 5.8mph /  9.3km/h 12.5mph /  20.1km/h 76% 0in /  0.0mm
03:03 42.3 °F /  5.7 °C 35.4 °F /  1.9 °C 29.7in /  1007.0hPa WNW 4.3mph /  6.9km/h 9.6mph /  15.4km/h 77% 0in /  0.0mm
03:08 42.3 °F /  5.7 °C 35.4 °F /  1.9 °C 29.8in /  1008.0hPa WNW 5.6mph /  9.0km/h 9.2mph /  14.8km/h 77% 0in /  0.0mm
03:13 42.3 °F /  5.7 °C 35.4 °F /  1.9 °C 29.8in /  1008.0hPa NNW 3.6mph /  5.8km/h 10.3mph /  16.6km/h 77% 0in /  0.0mm
03:18 42.3 °F /  5.7 °C 35.4 °F /  1.9 °C 29.8in /  1008.0hPa WNW 3.6mph /  5.8km/h 10.3mph /  16.6km/h 77% 0in /  0.0mm
03:23 42.3 °F /  5.7 °C 35.4 °F /  1.9 °C 29.8in /  1008.0hPa West 6.5mph /  10.5km/h 9.8mph /  15.8km/h 77% 0in /  0.0mm
03:28 42.3 °F /  5.7 °C 36 °F /  2.2 °C 29.8in /  1008.0hPa West 3.6mph /  5.8km/h 8.5mph /  13.7km/h 78% 0in /  0.0mm
03:33 42.1 °F /  5.6 °C 35.8 °F /  2.1 °C 29.8in /  1008.0hPa NW 4.7mph /  7.6km/h 8.1mph /  13.0km/h 78% 0in /  0.0mm
03:38 42.1 °F /  5.6 °C 35.8 °F /  2.1 °C 29.8in /  1009.0hPa NW 6mph /  9.7km/h 7.4mph /  11.9km/h 78% 0in /  0.0mm
03:43 42.1 °F /  5.6 °C 36 °F /  2.2 °C 29.8in /  1009.0hPa West 3.4mph /  5.5km/h 8.1mph /  13.0km/h 79% 0in /  0.0mm
03:48 41.9 °F /  5.5 °C 35.8 °F /  2.1 °C 29.8in /  1009.0hPa North 6.3mph /  10.1km/h 8.5mph /  13.7km/h 79% 0in /  0.0mm
03:53 41.9 °F /  5.5 °C 35.8 °F /  2.1 °C 29.8in /  1009.0hPa WNW 5.8mph /  9.3km/h 8.5mph /  13.7km/h 79% 0in /  0.0mm
03:58 41.9 °F /  5.5 °C 36.1 °F /  2.3 °C 29.8in /  1009.0hPa WNW 4.9mph /  7.9km/h 9.8mph /  15.8km/h 80% 0in /  0.0mm
04:03 41.7 °F /  5.4 °C 36 °F /  2.2 °C 29.8in /  1009.0hPa WSW 6mph /  9.7km/h 9.8mph /  15.8km/h 80% 0in /  0.0mm
04:08 41.5 °F /  5.3 °C 35.8 °F /  2.1 °C 29.8in /  1009.0hPa West 4mph /  6.4km/h 7.4mph /  11.9km/h 80% 0in /  0.0mm
04:13 41.2 °F /  5.1 °C 35.4 °F /  1.9 °C 29.8in /  1009.0hPa NNW 4.7mph /  7.6km/h 7.2mph /  11.6km/h 80% 0in /  0.0mm
04:18 41 °F /  5.0 °C 35.2 °F /  1.8 °C 29.8in /  1009.0hPa West 4.3mph /  6.9km/h 8.1mph /  13.0km/h 80% 0in /  0.0mm
04:23 40.8 °F /  4.9 °C 35.4 °F /  1.9 °C 29.8in /  1009.0hPa West 2.9mph /  4.7km/h 8.1mph /  13.0km/h 81% 0in /  0.0mm
04:28 40.8 °F /  4.9 °C 35.8 °F /  2.1 °C 29.8in /  1009.0hPa NW 5.4mph /  8.7km/h 7.4mph /  11.9km/h 82% 0in /  0.0mm
04:33 41 °F /  5.0 °C 36 °F /  2.2 °C 29.8in /  1009.0hPa West 4.3mph /  6.9km/h 9.6mph /  15.4km/h 82% 0in /  0.0mm
04:38 40.8 °F /  4.9 °C 35.8 °F /  2.1 °C 29.8in /  1009.0hPa WNW 5.6mph /  9.0km/h 9.6mph /  15.4km/h 82% 0in /  0.0mm
04:43 40.8 °F /  4.9 °C 35.8 °F /  2.1 °C 29.8in /  1009.0hPa West 4mph /  6.4km/h 9.4mph /  15.1km/h 82% 0in /  0.0mm
04:48 41 °F /  5.0 °C 36.1 °F /  2.3 °C 29.8in /  1009.0hPa West 5.4mph /  8.7km/h 9.4mph /  15.1km/h 83% 0in /  0.0mm
04:53 41 °F /  5.0 °C 36.1 °F /  2.3 °C 29.8in /  1009.0hPa West 3.1mph /  5.0km/h 7.2mph /  11.6km/h 83% 0in /  0.0mm
04:58 41 °F /  5.0 °C 36.1 °F /  2.3 °C 29.8in /  1009.0hPa WSW 5.6mph /  9.0km/h 7.2mph /  11.6km/h 83% 0in /  0.0mm
05:03 41 °F /  5.0 °C 36.1 °F /  2.3 °C 29.8in /  1009.0hPa WSW 4mph /  6.4km/h 8.1mph /  13.0km/h 83% 0in /  0.0mm
05:08 41.2 °F /  5.1 °C 36.7 °F /  2.6 °C 29.8in /  1009.0hPa SW 4.9mph /  7.9km/h 8.1mph /  13.0km/h 84% 0in /  0.0mm
05:13 41.2 °F /  5.1 °C 36.7 °F /  2.6 °C 29.8in /  1009.0hPa WSW 6mph /  9.7km/h 7.4mph /  11.9km/h 84% 0in /  0.0mm
05:18 41 °F /  5.0 °C 36.5 °F /  2.5 °C 29.8in /  1009.0hPa West 4.9mph /  7.9km/h 8.1mph /  13.0km/h 84% 0in /  0.0mm
05:23 41 °F /  5.0 °C 36.9 °F /  2.7 °C 29.8in /  1009.0hPa WSW 7.6mph /  12.2km/h 9.8mph /  15.8km/h 85% 0in /  0.0mm
05:28 41 °F /  5.0 °C 36.9 °F /  2.7 °C 29.8in /  1009.0hPa West 7.4mph /  11.9km/h 9.8mph /  15.8km/h 85% 0in /  0.0mm
05:33 41 °F /  5.0 °C 36.9 °F /  2.7 °C 29.8in /  1009.0hPa WNW 7.6mph /  12.2km/h 9.6mph /  15.4km/h 85% 0in /  0.0mm
05:38 40.8 °F /  4.9 °C 37 °F /  2.8 °C 29.8in /  1010.0hPa WSW 9.8mph /  15.8km/h 9.8mph /  15.8km/h 86% 0in /  0.0mm
05:43 40.8 °F /  4.9 °C 37 °F /  2.8 °C 29.8in /  1010.0hPa WSW 9.8mph /  15.8km/h 9.8mph /  15.8km/h 86% 0in /  0.0mm
05:48 40.5 °F /  4.7 °C 36.7 °F /  2.6 °C 29.8in /  1010.0hPa West 5.6mph /  9.0km/h 9.8mph /  15.8km/h 86% 0in /  0.0mm
05:53 40.5 °F /  4.7 °C 36.7 °F /  2.6 °C 29.8in /  1010.0hPa West 6mph /  9.7km/h 9.8mph /  15.8km/h 86% 0in /  0.0mm
05:58 40.3 °F /  4.6 °C 36.3 °F /  2.4 °C 29.8in /  1010.0hPa WNW 2.9mph /  4.7km/h 7.8mph /  12.6km/h 86% 0in /  0.0mm
06:03 40.1 °F /  4.5 °C 36.3 °F /  2.4 °C 29.8in /  1010.0hPa West 3.4mph /  5.5km/h 7.2mph /  11.6km/h 86% 0in /  0.0mm
06:08 40.1 °F /  4.5 °C 36.3 °F /  2.4 °C 29.8in /  1010.0hPa WNW 4.3mph /  6.9km/h 6.3mph /  10.1km/h 86% 0in /  0.0mm
06:13 40.3 °F /  4.6 °C 36.7 °F /  2.6 °C 29.8in /  1010.0hPa West 3.6mph /  5.8km/h 7.2mph /  11.6km/h 87% 0in /  0.0mm
06:18 40.5 °F /  4.7 °C 36.9 °F /  2.7 °C 29.8in /  1010.0hPa West 4.3mph /  6.9km/h 7.2mph /  11.6km/h 87% 0in /  0.0mm
06:23 40.6 °F /  4.8 °C 37 °F /  2.8 °C 29.9in /  1011.1hPa West 4.9mph /  7.9km/h 8.1mph /  13.0km/h 87% 0in /  0.0mm
06:28 40.6 °F /  4.8 °C 37.4 °F /  3.0 °C 29.9in /  1011.1hPa WSW 6.3mph /  10.1km/h 8.1mph /  13.0km/h 88% 0in /  0.0mm
06:33 40.8 °F /  4.9 °C 37.2 °F /  2.9 °C 29.9in /  1011.1hPa WSW 8.1mph /  13.0km/h 8.1mph /  13.0km/h 87% 0in /  0.0mm
06:38 40.8 °F /  4.9 °C 37.2 °F /  2.9 °C 29.9in /  1011.1hPa West 3.6mph /  5.8km/h 8.1mph /  13.0km/h 87% 0in /  0.0mm
06:43 41 °F /  5.0 °C 37.4 °F /  3.0 °C 29.9in /  1011.1hPa West 2.7mph /  4.3km/h 7.8mph /  12.6km/h 87% 0in /  0.0mm
06:48 40.8 °F /  4.9 °C 37.2 °F /  2.9 °C 29.9in /  1011.1hPa West 3.4mph /  5.5km/h 7.8mph /  12.6km/h 87% 0in /  0.0mm
06:53 40.6 °F /  4.8 °C 37 °F /  2.8 °C 29.9in /  1011.1hPa West 3.1mph /  5.0km/h 8.5mph /  13.7km/h 87% 0in /  0.0mm
06:58 40.5 °F /  4.7 °C 36.9 °F /  2.7 °C 29.9in /  1011.1hPa WNW 3.6mph /  5.8km/h 8.5mph /  13.7km/h 87% 0in /  0.0mm
07:03 40.5 °F /  4.7 °C 36.9 °F /  2.7 °C 29.9in /  1011.1hPa West 3.6mph /  5.8km/h 7.4mph /  11.9km/h 87% 0in /  0.0mm
07:08 40.3 °F /  4.6 °C 36.7 °F /  2.6 °C 29.9in /  1011.1hPa Calm   7.2mph /  11.6km/h 87% 0in /  0.0mm
07:13 40.5 °F /  4.7 °C 36.9 °F /  2.7 °C 29.9in /  1011.1hPa WNW 2.9mph /  4.7km/h 7.2mph /  11.6km/h 87% 0in /  0.0mm
07:18 40.5 °F /  4.7 °C 36.9 °F /  2.7 °C 29.9in /  1011.1hPa West 4mph /  6.4km/h 5.6mph /  9.0km/h 87% 0in /  0.0mm
07:23 40.5 °F /  4.7 °C 37.2 °F /  2.9 °C 29.9in /  1011.1hPa West 5.6mph /  9.0km/h 6.3mph /  10.1km/h 88% 0in /  0.0mm
07:26 40.5 °F /  4.7 °C 37.2 °F /  2.9 °C 29.9in /  1011.1hPa WNW 4.3mph /  6.9km/h 6.3mph /  10.1km/h 88% 0in /  0.0mm
07:31 40.5 °F /  4.7 °C 37.2 °F /  2.9 °C 29.9in /  1011.1hPa West 4.3mph /  6.9km/h 6.5mph /  10.5km/h 88% 0in /  0.0mm
07:36 40.6 °F /  4.8 °C 37.4 °F /  3.0 °C 29.9in /  1011.1hPa WNW 4mph /  6.4km/h 6.7mph /  10.8km/h 88% 0in /  0.0mm
07:41 40.6 °F /  4.8 °C 37.4 °F /  3.0 °C 29.9in /  1011.1hPa West 2.5mph /  4.0km/h 6.7mph /  10.8km/h 88% 0in /  0.0mm
07:46 40.8 °F /  4.9 °C 37.6 °F /  3.1 °C 29.9in /  1011.1hPa WNW 3.4mph /  5.5km/h 6mph /  9.7km/h 88% 0in /  0.0mm
07:51 40.8 °F /  4.9 °C 37.6 °F /  3.1 °C 29.9in /  1011.1hPa West 2.9mph /  4.7km/h 6.5mph /  10.5km/h 88% 0in /  0.0mm
07:56 41 °F /  5.0 °C 37.8 °F /  3.2 °C 29.9in /  1011.1hPa WNW 5.6mph /  9.0km/h 6.5mph /  10.5km/h 88% 0in /  0.0mm
08:01 41 °F /  5.0 °C 37.8 °F /  3.2 °C 29.9in /  1011.1hPa West 3.6mph /  5.8km/h 6.5mph /  10.5km/h 88% 0in /  0.0mm
08:06 41.2 °F /  5.1 °C 37.9 °F /  3.3 °C 29.9in /  1011.1hPa NW 4mph /  6.4km/h 6.5mph /  10.5km/h 88% 0in /  0.0mm
08:11 41.2 °F /  5.1 °C 37.9 °F /  3.3 °C 29.9in /  1012.1hPa WNW 3.6mph /  5.8km/h 7.2mph /  11.6km/h 88% 0in /  0.0mm
08:16 41.4 °F /  5.2 °C 38.1 °F /  3.4 °C 29.9in /  1012.1hPa NNE 2.2mph /  3.5km/h 7.2mph /  11.6km/h 88% 0in /  0.0mm
08:21 41.4 °F /  5.2 °C 38.1 °F /  3.4 °C 29.9in /  1012.1hPa WNW 4.3mph /  6.9km/h 7.2mph /  11.6km/h 88% 0in /  0.0mm
08:26 41.4 °F /  5.2 °C 38.1 °F /  3.4 °C 29.9in /  1013.1hPa NNW 5.6mph /  9.0km/h 6mph /  9.7km/h 88% 0in /  0.0mm
08:31 41.4 °F /  5.2 °C 38.1 °F /  3.4 °C 29.9in /  1013.1hPa West 3.6mph /  5.8km/h 6.3mph /  10.1km/h 88% 0in /  0.0mm
08:36 41.5 °F /  5.3 °C 38.1 °F /  3.4 °C 29.9in /  1013.1hPa North 2.9mph /  4.7km/h 7.2mph /  11.6km/h 88% 0in /  0.0mm
08:41 41.4 °F /  5.2 °C 37.8 °F /  3.2 °C 29.9in /  1013.1hPa WNW 3.1mph /  5.0km/h 8.5mph /  13.7km/h 87% 0in /  0.0mm
08:46 41.4 °F /  5.2 °C 37.8 °F /  3.2 °C 29.9in /  1013.1hPa WNW 6.5mph /  10.5km/h 8.5mph /  13.7km/h 87% 0in /  0.0mm
08:51 41.4 °F /  5.2 °C 37.8 °F /  3.2 °C 29.9in /  1013.1hPa WNW 5.4mph /  8.7km/h 7.6mph /  12.2km/h 87% 0in /  0.0mm
08:56 41.5 °F /  5.3 °C 37.9 °F /  3.3 °C 29.9in /  1013.1hPa WNW 6.3mph /  10.1km/h 7.6mph /  12.2km/h 87% 0in /  0.0mm
09:01 41.5 °F /  5.3 °C 37.9 °F /  3.3 °C 29.9in /  1013.1hPa WNW 6.3mph /  10.1km/h 6.3mph /  10.1km/h 87% 0in /  0.0mm
09:06 41.7 °F /  5.4 °C 38.1 °F /  3.4 °C 29.9in /  1013.1hPa WSW 2.7mph /  4.3km/h 6.3mph /  10.1km/h 87% 0in /  0.0mm
09:11 41.9 °F /  5.5 °C 38.3 °F /  3.5 °C 29.9in /  1012.1hPa West 4.3mph /  6.9km/h 6.5mph /  10.5km/h 87% 0in /  0.0mm
09:16 42.1 °F /  5.6 °C 38.8 °F /  3.8 °C 29.9in /  1012.1hPa WNW 4.9mph /  7.9km/h 6.5mph /  10.5km/h 88% 0in /  0.0mm
09:21 42.3 °F /  5.7 °C 38.8 °F /  3.8 °C 29.9in /  1012.1hPa WSW 5.4mph /  8.7km/h 8.7mph /  14.0km/h 88% 0in /  0.0mm
09:26 42.3 °F /  5.7 °C 38.8 °F /  3.8 °C 29.9in /  1012.1hPa West 3.1mph /  5.0km/h 8.7mph /  14.0km/h 88% 0in /  0.0mm
09:31 42.1 °F /  5.6 °C 38.8 °F /  3.8 °C 29.9in /  1012.1hPa West 5.8mph /  9.3km/h 8.7mph /  14.0km/h 88% 0in /  0.0mm
09:36 41.5 °F /  5.3 °C 37.9 °F /  3.3 °C 29.9in /  1012.1hPa West 11.4mph /  18.3km/h 11.4mph /  18.3km/h 87% 0in /  0.0mm
09:41 41.2 °F /  5.1 °C 37.9 °F /  3.3 °C 29.9in /  1013.1hPa Calm   11.4mph /  18.3km/h 88% 0in /  0.0mm
09:46 40.8 °F /  4.9 °C 37.6 °F /  3.1 °C 29.9in /  1013.1hPa NE 4mph /  6.4km/h 11.4mph /  18.3km/h 88% 0in /  0.0mm
09:51 40.1 °F /  4.5 °C 36.9 °F /  2.7 °C 29.9in /  1013.1hPa NNW 2.9mph /  4.7km/h 6.5mph /  10.5km/h 88% 0in /  0.0mm
09:56 40.1 °F /  4.5 °C 36.9 °F /  2.7 °C 29.9in /  1014.1hPa North 3.8mph /  6.1km/h 5.6mph /  9.0km/h 88% 0.01in /  0.3mm
10:01 39.7 °F /  4.3 °C 36.5 °F /  2.5 °C 29.9in /  1014.1hPa North 3.6mph /  5.8km/h 4.9mph /  7.9km/h 88% 0.01in /  0.3mm
10:06 39.6 °F /  4.2 °C 36.7 °F /  2.6 °C 29.9in /  1014.1hPa NE 3.4mph /  5.5km/h 4.7mph /  7.6km/h 89% 0.01in /  0.3mm
10:11 39.6 °F /  4.2 °C 36.7 °F /  2.6 °C 29.9in /  1014.1hPa NNE 3.1mph /  5.0km/h 4mph /  6.4km/h 89% 0.01in /  0.3mm
10:16 39.6 °F /  4.2 °C 36.9 °F /  2.7 °C 29.9in /  1014.1hPa NNE 3.1mph /  5.0km/h 4.3mph /  6.9km/h 90% 0.02in /  0.5mm
10:21 39.7 °F /  4.3 °C 37.2 °F /  2.9 °C 29.9in /  1014.1hPa North 2.7mph /  4.3km/h 4.3mph /  6.9km/h 91% 0.02in /  0.5mm
10:26 40.1 °F /  4.5 °C 37.9 °F /  3.3 °C 29.9in /  1014.1hPa Calm   3.4mph /  5.5km/h 92% 0.02in /  0.5mm
10:31 40.1 °F /  4.5 °C 38.3 °F /  3.5 °C 29.9in /  1014.1hPa Calm   2.7mph /  4.3km/h 93% 0.02in /  0.5mm
10:36 40.3 °F /  4.6 °C 38.5 °F /  3.6 °C 29.9in /  1014.1hPa Calm   2.7mph /  4.3km/h 93% 0.02in /  0.5mm
10:41 40.5 °F /  4.7 °C 38.7 °F /  3.7 °C 29.9in /  1014.1hPa Calm   1.1mph /  1.8km/h 93% 0.02in /  0.5mm
10:46 40.5 °F /  4.7 °C 38.7 °F /  3.7 °C 29.9in /  1014.1hPa NE 3.1mph /  5.0km/h 3.6mph /  5.8km/h 93% 0.02in /  0.5mm
10:51 40.5 °F /  4.7 °C 38.7 °F /  3.7 °C 29.9in /  1014.1hPa NE 4.3mph /  6.9km/h 4.3mph /  6.9km/h 93% 0.02in /  0.5mm
10:56 40.6 °F /  4.8 °C 38.8 °F /  3.8 °C 29.9in /  1014.1hPa Calm   4.3mph /  6.9km/h 93% 0.01in /  0.3mm
11:01 40.5 °F /  4.7 °C 38.7 °F /  3.7 °C 29.9in /  1014.1hPa East 2.7mph /  4.3km/h 4.3mph /  6.9km/h 93% 0.01in /  0.3mm
11:06 40.5 °F /  4.7 °C 38.7 °F /  3.7 °C 29.9in /  1014.1hPa ENE 1.6mph /  2.6km/h 4.7mph /  7.6km/h 93% 0.01in /  0.3mm
11:11 40.6 °F /  4.8 °C 38.8 °F /  3.8 °C 30in /  1015.1hPa East 2mph /  3.2km/h 4.7mph /  7.6km/h 93% 0.01in /  0.3mm
11:16 40.5 °F /  4.7 °C 38.8 °F /  3.8 °C 30in /  1015.1hPa West 2.9mph /  4.7km/h 6.3mph /  10.1km/h 94% 0.01in /  0.3mm
11:21 40.5 °F /  4.7 °C 38.7 °F /  3.7 °C 30in /  1015.1hPa NW 5.4mph /  8.7km/h 6.5mph /  10.5km/h 93% 0.01in /  0.3mm
11:26 40.1 °F /  4.5 °C 38.3 °F /  3.5 °C 30in /  1015.1hPa North 7.6mph /  12.2km/h 9.8mph /  15.8km/h 93% 0.02in /  0.5mm
11:31 39.9 °F /  4.4 °C 38.5 °F /  3.6 °C 30in /  1015.1hPa WNW 9.6mph /  15.4km/h 10.5mph /  16.9km/h 94% 0.03in /  0.8mm
11:36 39.7 °F /  4.3 °C 38.1 °F /  3.4 °C 30in /  1015.1hPa NNW 4.9mph /  7.9km/h 10.5mph /  16.9km/h 94% 0.06in /  1.5mm
11:41 39.6 °F /  4.2 °C 37.9 °F /  3.3 °C 30in /  1015.1hPa NNE 2.5mph /  4.0km/h 10.5mph /  16.9km/h 94% 0.08in /  2.0mm
11:46 39.6 °F /  4.2 °C 37.9 °F /  3.3 °C 30in /  1015.1hPa NNW 5.6mph /  9.0km/h 10.5mph /  16.9km/h 94% 0.09in /  2.3mm
11:51 39.4 °F /  4.1 °C 37.8 °F /  3.2 °C 30in /  1015.1hPa North 6.3mph /  10.1km/h 8.7mph /  14.0km/h 94% 0.11in /  2.8mm
11:56 39.6 °F /  4.2 °C 37.9 °F /  3.3 °C 30in /  1015.1hPa NNW 3.6mph /  5.8km/h 10.1mph /  16.3km/h 94% 0.11in /  2.8mm
12:01 39.7 °F /  4.3 °C 38.5 °F /  3.6 °C 30in /  1015.1hPa NW 3.4mph /  5.5km/h 10.1mph /  16.3km/h 95% 0.12in /  3.0mm
12:06 40.3 °F /  4.6 °C 39.2 °F /  4.0 °C 30in /  1015.1hPa Calm   6.9mph /  11.1km/h 96% 0.14in /  3.6mm
12:11 40.6 °F /  4.8 °C 39.6 °F /  4.2 °C 30in /  1015.1hPa NNW 1.3mph /  2.1km/h 5.8mph /  9.3km/h 96% 0.14in /  3.6mm
12:16 41.5 °F /  5.3 °C 40.5 °F /  4.7 °C 30in /  1015.1hPa North 2.5mph /  4.0km/h 4mph /  6.4km/h 96% 0.12in /  3.0mm
12:21 41.7 °F /  5.4 °C 40.6 °F /  4.8 °C 30in /  1015.1hPa NNW 6.5mph /  10.5km/h 7.6mph /  12.2km/h 96% 0.12in /  3.0mm
12:26 41.7 °F /  5.4 °C 40.6 °F /  4.8 °C 29.9in /  1014.1hPa North 6mph /  9.7km/h 9.6mph /  15.4km/h 96% 0.13in /  3.3mm
12:31 41.9 °F /  5.5 °C 40.8 °F /  4.9 °C 29.9in /  1014.1hPa NW 4.3mph /  6.9km/h 9.6mph /  15.4km/h 96% 0.12in /  3.0mm
12:36 42.1 °F /  5.6 °C 40.6 °F /  4.8 °C 29.9in /  1014.1hPa Calm   6.3mph /  10.1km/h 95% 0.09in /  2.3mm
12:41 42.6 °F /  5.9 °C 41.4 °F /  5.2 °C 30in /  1015.1hPa West 1.1mph /  1.8km/h 4.3mph /  6.9km/h 95% 0.07in /  1.8mm
12:46 43.2 °F /  6.2 °C 42.1 °F /  5.6 °C 30in /  1015.1hPa West 2.9mph /  4.7km/h 5.4mph /  8.7km/h 96% 0.06in /  1.5mm
12:51 43.5 °F /  6.4 °C 42.4 °F /  5.8 °C 30in /  1015.1hPa NW 3.4mph /  5.5km/h 7.2mph /  11.6km/h 96% 0.05in /  1.3mm
12:56 43.5 °F /  6.4 °C 42.3 °F /  5.7 °C 30in /  1015.1hPa NW 1.3mph /  2.1km/h 7.2mph /  11.6km/h 95% 0.05in /  1.3mm
13:01 43.5 °F /  6.4 °C 42.3 °F /  5.7 °C 30in /  1015.1hPa West 2.5mph /  4.0km/h 5.6mph /  9.0km/h 95% 0.04in /  1.0mm
13:06 43.5 °F /  6.4 °C 42.3 °F /  5.7 °C 30in /  1015.1hPa North 6mph /  9.7km/h 6.3mph /  10.1km/h 95% 0.03in /  0.8mm
13:11 43.5 °F /  6.4 °C 42.1 °F /  5.6 °C 30in /  1015.1hPa NW 2.7mph /  4.3km/h 9.8mph /  15.8km/h 94% 0.03in /  0.8mm
13:16 43.5 °F /  6.4 °C 42.1 °F /  5.6 °C 30in /  1015.1hPa NNW 2.9mph /  4.7km/h 9.8mph /  15.8km/h 94% 0.03in /  0.8mm
13:21 43.5 °F /  6.4 °C 41.5 °F /  5.3 °C 30in /  1015.1hPa NNW 4.3mph /  6.9km/h 8.1mph /  13.0km/h 93% 0.03in /  0.8mm
13:26 43.5 °F /  6.4 °C 41.5 °F /  5.3 °C 30in /  1015.1hPa North 5.6mph /  9.0km/h 8.1mph /  13.0km/h 93% 0.01in /  0.3mm
13:31 43.5 °F /  6.4 °C 41.7 °F /  5.4 °C 30in /  1015.1hPa West 1.1mph /  1.8km/h 7.8mph /  12.6km/h 93% 0.01in /  0.3mm
13:36 44.1 °F /  6.7 °C 42.1 °F /  5.6 °C 30in /  1015.1hPa North 3.8mph /  6.1km/h 7.8mph /  12.6km/h 93% 0.01in /  0.3mm
13:41 44.1 °F /  6.7 °C 42.1 °F /  5.6 °C 30in /  1015.1hPa NNE 3.6mph /  5.8km/h 7.8mph /  12.6km/h 93% 0.01in /  0.3mm
13:46 44.2 °F /  6.8 °C 42.3 °F /  5.7 °C 30in /  1015.1hPa NW 3.1mph /  5.0km/h 6.3mph /  10.1km/h 92% 0.01in /  0.3mm
13:51 44.8 °F /  7.1 °C 42.4 °F /  5.8 °C 30in /  1015.1hPa East 3.1mph /  5.0km/h 6.3mph /  10.1km/h 92% 0in /  0.0mm
13:56 45 °F /  7.2 °C 42.4 °F /  5.8 °C 30in /  1015.1hPa NNW 4.3mph /  6.9km/h 8.1mph /  13.0km/h 91% 0in /  0.0mm
14:01 45.3 °F /  7.4 °C 42.6 °F /  5.9 °C 30in /  1015.1hPa WNW 2.5mph /  4.0km/h 8.1mph /  13.0km/h 90% 0in /  0.0mm
14:06 45.1 °F /  7.3 °C 42.3 °F /  5.7 °C 30in /  1015.1hPa NNE 3.6mph /  5.8km/h 7.8mph /  12.6km/h 89% 0in /  0.0mm
14:11 45 °F /  7.2 °C 41.5 °F /  5.3 °C 30in /  1016.1hPa WNW 5.8mph /  9.3km/h 7.2mph /  11.6km/h 88% 0in /  0.0mm
14:16 44.4 °F /  6.9 °C 40.3 °F /  4.6 °C 30in /  1016.1hPa WNW 4mph /  6.4km/h 11mph /  17.7km/h 85% 0in /  0.0mm
14:21 45.3 °F /  7.4 °C 41.5 °F /  5.3 °C 30in /  1016.1hPa West 7.2mph /  11.6km/h 11mph /  17.7km/h 86% 0in /  0.0mm
14:26 45.3 °F /  7.4 °C 41.2 °F /  5.1 °C 30in /  1015.1hPa NNW 3.8mph /  6.1km/h 10.5mph /  16.9km/h 85% 0in /  0.0mm
14:31 45.1 °F /  7.3 °C 40.3 °F /  4.6 °C 30in /  1015.1hPa North 7.4mph /  11.9km/h 12.5mph /  20.1km/h 83% 0in /  0.0mm
14:36 45 °F /  7.2 °C 39.4 °F /  4.1 °C 30in /  1015.1hPa NW 5.4mph /  8.7km/h 12.5mph /  20.1km/h 81% 0in /  0.0mm
14:41 45 °F /  7.2 °C 39.4 °F /  4.1 °C 30in /  1016.1hPa North 6.5mph /  10.5km/h 12.3mph /  19.8km/h 81% 0in /  0.0mm
14:46 46 °F /  7.8 °C 40.3 °F /  4.6 °C 30in /  1016.1hPa North 4mph /  6.4km/h 15.4mph /  24.8km/h 80% 0in /  0.0mm
14:51 46.8 °F /  8.2 °C 40.3 °F /  4.6 °C 30in /  1016.1hPa North 3.4mph /  5.5km/h 15.4mph /  24.8km/h 78% 0in /  0.0mm
14:56 47.5 °F /  8.6 °C 41.7 °F /  5.4 °C 30in /  1016.8hPa North 3.1mph /  5.0km/h 12.1mph /  19.5km/h 80% 0in /  0.0mm
15:01 46.6 °F /  8.1 °C 39.6 °F /  4.2 °C 30in /  1016.8hPa North 7.6mph /  12.2km/h 7.8mph /  12.6km/h 76% 0in /  0.0mm
15:06 46 °F /  7.8 °C 39 °F /  3.9 °C 30in /  1016.8hPa NNW 4mph /  6.4km/h 7.8mph /  12.6km/h 76% 0in /  0.0mm
15:11 45.9 °F /  7.7 °C 38.3 °F /  3.5 °C 30in /  1016.8hPa NNW 7.6mph /  12.2km/h 10.5mph /  16.9km/h 75% 0in /  0.0mm
15:16 45.3 °F /  7.4 °C 37.9 °F /  3.3 °C 30in /  1016.8hPa NNW 4mph /  6.4km/h 10.5mph /  16.9km/h 75% 0in /  0.0mm
15:21 45.3 °F /  7.4 °C 37.9 °F /  3.3 °C 30in /  1016.8hPa NW 5.6mph /  9.0km/h 8.5mph /  13.7km/h 75% 0in /  0.0mm
15:26 45.9 °F /  7.7 °C 38.3 °F /  3.5 °C 30in /  1016.8hPa WNW 2.7mph /  4.3km/h 8.5mph /  13.7km/h 75% 0in /  0.0mm
15:31 47.1 °F /  8.4 °C 39.6 °F /  4.2 °C 30in /  1016.8hPa East 0.9mph /  1.4km/h 8.5mph /  13.7km/h 75% 0in /  0.0mm
15:36 46.9 °F /  8.3 °C 38.8 °F /  3.8 °C 30in /  1016.8hPa NNW 4mph /  6.4km/h 8.5mph /  13.7km/h 73% 0in /  0.0mm
15:41 46.2 °F /  7.9 °C 37.8 °F /  3.2 °C 30in /  1016.8hPa West 4.3mph /  6.9km/h 8.7mph /  14.0km/h 72% 0in /  0.0mm
15:46 45.9 °F /  7.7 °C 37.6 °F /  3.1 °C 30in /  1016.8hPa WNW 4mph /  6.4km/h 8.7mph /  14.0km/h 73% 0in /  0.0mm
15:51 45.7 °F /  7.6 °C 37.4 °F /  3.0 °C 30in /  1016.8hPa Calm   7.2mph /  11.6km/h 73% 0in /  0.0mm
15:56 45.1 °F /  7.3 °C 37 °F /  2.8 °C 30in /  1016.1hPa North 3.6mph /  5.8km/h 10.1mph /  16.3km/h 73% 0in /  0.0mm
16:01 45.9 °F /  7.7 °C 37.8 °F /  3.2 °C 30in /  1016.1hPa North 3.8mph /  6.1km/h 10.1mph /  16.3km/h 73% 0in /  0.0mm
16:06 46.2 °F /  7.9 °C 37.8 °F /  3.2 °C 30in /  1016.1hPa NNW 3.8mph /  6.1km/h 9.6mph /  15.4km/h 72% 0in /  0.0mm
16:07 46.2 °F /  7.9 °C 37.8 °F /  3.2 °C 30in /  1016.8hPa WNW 2.9mph /  4.7km/h 9.6mph /  15.4km/h 72% 0in /  0.0mm
16:12 46.9 °F /  8.3 °C 38.1 °F /  3.4 °C 30in /  1016.8hPa NNW 3.1mph /  5.0km/h 9.6mph /  15.4km/h 71% 0in /  0.0mm
16:17 46.2 °F /  7.9 °C 36.7 °F /  2.6 °C 30in /  1016.8hPa North 5.6mph /  9.0km/h 8.5mph /  13.7km/h 69% 0in /  0.0mm
16:22 45.7 °F /  7.6 °C 36 °F /  2.2 °C 30in /  1016.8hPa NW 5.8mph /  9.3km/h 8.5mph /  13.7km/h 69% 0in /  0.0mm
16:27 45.3 °F /  7.4 °C 36.1 °F /  2.3 °C 30in /  1016.8hPa Calm   7.6mph /  12.2km/h 70% 0in /  0.0mm
16:32 45.1 °F /  7.3 °C 36 °F /  2.2 °C 30in /  1016.8hPa North 4.5mph /  7.2km/h 7.4mph /  11.9km/h 70% 0in /  0.0mm
16:37 45 °F /  7.2 °C 35.8 °F /  2.1 °C 30in /  1016.8hPa WNW 2.7mph /  4.3km/h 7.4mph /  11.9km/h 70% 0in /  0.0mm
16:42 44.4 °F /  6.9 °C 35.8 °F /  2.1 °C 30in /  1016.8hPa NNW 2mph /  3.2km/h 6.3mph /  10.1km/h 71% 0in /  0.0mm
16:47 44.4 °F /  6.9 °C 36.1 °F /  2.3 °C 30in /  1016.8hPa NNW 6mph /  9.7km/h 6.3mph /  10.1km/h 72% 0in /  0.0mm
16:52 44.2 °F /  6.8 °C 36 °F /  2.2 °C 30in /  1016.8hPa Calm   6mph /  9.7km/h 72% 0in /  0.0mm
16:57 44.2 °F /  6.8 °C 36.1 °F /  2.3 °C 30in /  1016.8hPa NNW 4.3mph /  6.9km/h 5.4mph /  8.7km/h 73% 0in /  0.0mm
17:02 44.2 °F /  6.8 °C 35.8 °F /  2.1 °C 30in /  1016.8hPa Calm   6.3mph /  10.1km/h 72% 0in /  0.0mm
17:07 44.2 °F /  6.8 °C 35.8 °F /  2.1 °C 30.1in /  1018.2hPa West 2.7mph /  4.3km/h 6.3mph /  10.1km/h 72% 0in /  0.0mm
17:12 44.1 °F /  6.7 °C 35.4 °F /  1.9 °C 30.1in /  1018.2hPa WSW 3.4mph /  5.5km/h 5.8mph /  9.3km/h 72% 0in /  0.0mm
17:17 44.2 °F /  6.8 °C 35.4 °F /  1.9 °C 30.1in /  1018.2hPa NNW 0.9mph /  1.4km/h 6mph /  9.7km/h 71% 0in /  0.0mm
17:22 44.2 °F /  6.8 °C 35.4 °F /  1.9 °C 30.1in /  1018.2hPa NNW 4mph /  6.4km/h 6.9mph /  11.1km/h 71% 0in /  0.0mm
17:27 44.2 °F /  6.8 °C 35.4 °F /  1.9 °C 30.1in /  1018.2hPa West 2.5mph /  4.0km/h 6.9mph /  11.1km/h 71% 0in /  0.0mm
17:32 44.2 °F /  6.8 °C 35.2 °F /  1.8 °C 30.1in /  1018.2hPa North 3.1mph /  5.0km/h 5.4mph /  8.7km/h 70% 0in /  0.0mm
17:37 44.2 °F /  6.8 °C 35.4 °F /  1.9 °C 30.1in /  1018.2hPa WNW 2.2mph /  3.5km/h 3.8mph /  6.1km/h 71% 0in /  0.0mm
17:42 44.2 °F /  6.8 °C 35.4 °F /  1.9 °C 30.1in /  1018.2hPa WNW 1.6mph /  2.6km/h 3.8mph /  6.1km/h 71% 0in /  0.0mm
17:47 44.2 °F /  6.8 °C 35.1 °F /  1.7 °C 30.1in /  1018.2hPa NNW 2.9mph /  4.7km/h 6mph /  9.7km/h 70% 0in /  0.0mm
17:52 44.2 °F /  6.8 °C 35.2 °F /  1.8 °C 30.1in /  1018.2hPa Calm   7.6mph /  12.2km/h 70% 0in /  0.0mm
17:57 44.1 °F /  6.7 °C 34.9 °F /  1.6 °C 30.1in /  1018.2hPa NNW 3.1mph /  5.0km/h 7.6mph /  12.2km/h 70% 0in /  0.0mm
18:02 43.5 °F /  6.4 °C 34.3 °F /  1.3 °C 30.1in /  1018.2hPa WNW 3.8mph /  6.1km/h 6.5mph /  10.5km/h 70% 0in /  0.0mm
18:07 43.2 °F /  6.2 °C 34 °F /  1.1 °C 30.1in /  1018.8hPa Calm   6.5mph /  10.5km/h 70% 0in /  0.0mm
18:12 42.8 °F /  6.0 °C 33.6 °F /  0.9 °C 30.1in /  1018.8hPa WNW 3.6mph /  5.8km/h 4mph /  6.4km/h 70% 0in /  0.0mm
18:17 42.4 °F /  5.8 °C 33.6 °F /  0.9 °C 30.1in /  1018.8hPa Calm   4mph /  6.4km/h 71% 0in /  0.0mm
18:22 42.1 °F /  5.6 °C 33.3 °F /  0.7 °C 30.1in /  1018.8hPa Calm   4mph /  6.4km/h 71% 0in /  0.0mm
18:27 41.7 °F /  5.4 °C 33.1 °F /  0.6 °C 30.1in /  1018.8hPa Calm   4mph /  6.4km/h 71% 0in /  0.0mm
18:32 41.4 °F /  5.2 °C 33.1 °F /  0.6 °C 30.1in /  1018.8hPa Calm   3.4mph /  5.5km/h 72% 0in /  0.0mm
18:37 41.2 °F /  5.1 °C 32.7 °F /  0.4 °C 30.1in /  1018.8hPa Calm   3.4mph /  5.5km/h 72% 0in /  0.0mm
18:42 40.8 °F /  4.9 °C 32.5 °F /  0.3 °C 30.1in /  1018.8hPa Calm   3.4mph /  5.5km/h 72% 0in /  0.0mm
18:47 40.5 °F /  4.7 °C 32.5 °F /  0.3 °C 30.1in /  1018.8hPa Calm   1.1mph /  1.8km/h 73% 0in /  0.0mm
18:52 39.9 °F /  4.4 °C 32 °F /  0.0 °C 30.1in /  1018.8hPa Calm   1.1mph /  1.8km/h 73% 0in /  0.0mm
18:57 39.6 °F /  4.2 °C 31.6 °F /  -0.2 °C 30.1in /  1018.8hPa Calm     73% 0in /  0.0mm
19:02 39.2 °F /  4.0 °C 31.3 °F /  -0.4 °C 30.1in /  1018.8hPa Calm     73% 0in /  0.0mm
19:07 38.7 °F /  3.7 °C 31.1 °F /  -0.5 °C 30.1in /  1018.8hPa Calm     74% 0in /  0.0mm
19:12 38.5 °F /  3.6 °C 31.3 °F /  -0.4 °C 30.1in /  1018.8hPa Calm     75% 0in /  0.0mm
19:17 38.1 °F /  3.4 °C 31.3 °F /  -0.4 °C 30.1in /  1018.8hPa Calm     76% 0in /  0.0mm
19:22 37.8 °F /  3.2 °C 30.9 °F /  -0.6 °C 30.1in /  1018.8hPa Calm     76% 0in /  0.0mm
19:27 37.2 °F /  2.9 °C 30.4 °F /  -0.9 °C 30.1in /  1018.8hPa Calm     76% 0in /  0.0mm
19:32 36.9 °F /  2.7 °C 30.4 °F /  -0.9 °C 30.1in /  1018.8hPa Calm     77% 0in /  0.0mm
19:37 36.3 °F /  2.4 °C 30.2 °F /  -1.0 °C 30.1in /  1018.8hPa Calm     78% 0in /  0.0mm
19:42 36.1 °F /  2.3 °C 29.8 °F /  -1.2 °C 30.1in /  1018.8hPa Calm     78% 0in /  0.0mm
19:47 35.8 °F /  2.1 °C 29.5 °F /  -1.4 °C 30.1in /  1018.8hPa Calm     78% 0in /  0.0mm
19:52 35.4 °F /  1.9 °C 29.7 °F /  -1.3 °C 30.1in /  1018.8hPa Calm     79% 0in /  0.0mm
19:57 35.4 °F /  1.9 °C 29.8 °F /  -1.2 °C 30.1in /  1018.8hPa Calm     80% 0in /  0.0mm
20:02 35.2 °F /  1.8 °C 29.8 °F /  -1.2 °C 30.1in /  1018.8hPa Calm     81% 0in /  0.0mm
20:07 35.2 °F /  1.8 °C 30.2 °F /  -1.0 °C 30.1in /  1019.9hPa Calm     82% 0in /  0.0mm
20:12 34.9 °F /  1.6 °C 30.2 °F /  -1.0 °C 30.1in /  1019.9hPa Calm     83% 0in /  0.0mm
20:17 35.1 °F /  1.7 °C 30.4 °F /  -0.9 °C 30.1in /  1019.9hPa Calm     83% 0in /  0.0mm
20:22 35.1 °F /  1.7 °C 30.7 °F /  -0.7 °C 30.1in /  1018.8hPa Calm     84% 0in /  0.0mm
20:27 34.9 °F /  1.6 °C 30.7 °F /  -0.7 °C 30.1in /  1018.8hPa Calm   2.5mph /  4.0km/h 85% 0in /  0.0mm
20:32 34.5 °F /  1.4 °C 30.4 °F /  -0.9 °C 30.1in /  1018.8hPa Calm   2.5mph /  4.0km/h 85% 0in /  0.0mm
20:37 34.3 °F /  1.3 °C 30.4 °F /  -0.9 °C 30.1in /  1019.9hPa Calm     85% 0in /  0.0mm
20:42 34.2 °F /  1.2 °C 30 °F /  -1.1 °C 30.1in /  1019.9hPa Calm     85% 0in /  0.0mm
20:47 34 °F /  1.1 °C 29.8 °F /  -1.2 °C 30.1in /  1019.9hPa Calm     85% 0in /  0.0mm
20:52 33.8 °F /  1.0 °C 30 °F /  -1.1 °C 30.1in /  1019.9hPa Calm     86% 0in /  0.0mm
20:57 33.6 °F /  0.9 °C 29.8 °F /  -1.2 °C 30.1in /  1019.9hPa Calm     86% 0in /  0.0mm
21:02 33.6 °F /  0.9 °C 30 °F /  -1.1 °C 30.1in /  1019.9hPa Calm   1.1mph /  1.8km/h 87% 0in /  0.0mm
21:07 33.6 °F /  0.9 °C 30.4 °F /  -0.9 °C 30.1in /  1019.9hPa Calm   1.1mph /  1.8km/h 88% 0in /  0.0mm
21:12 33.6 °F /  0.9 °C 30.4 °F /  -0.9 °C 30.1in /  1019.9hPa Calm   1.1mph /  1.8km/h 88% 0in /  0.0mm
21:17 33.4 °F /  0.8 °C 30.2 °F /  -1.0 °C 30.1in /  1019.9hPa Calm     88% 0in /  0.0mm
21:22 33.3 °F /  0.7 °C 30 °F /  -1.1 °C 30.1in /  1019.9hPa Calm     88% 0in /  0.0mm
21:27 33.1 °F /  0.6 °C 29.8 °F /  -1.2 °C 30.1in /  1019.9hPa Calm     88% 0in /  0.0mm
21:32 33.1 °F /  0.6 °C 29.8 °F /  -1.2 °C 30.1in /  1019.9hPa Calm     88% 0in /  0.0mm
21:37 32.7 °F /  0.4 °C 29.5 °F /  -1.4 °C 30.2in /  1020.9hPa Calm     88% 0in /  0.0mm
21:42 32.7 °F /  0.4 °C 29.8 °F /  -1.2 °C 30.2in /  1020.9hPa Calm     89% 0in /  0.0mm
21:47 32.7 °F /  0.4 °C 29.8 °F /  -1.2 °C 30.2in /  1020.9hPa Calm     89% 0in /  0.0mm
21:52 32.5 °F /  0.3 °C 29.7 °F /  -1.3 °C 30.1in /  1019.9hPa Calm     89% 0in /  0.0mm
21:57 32.5 °F /  0.3 °C 29.7 °F /  -1.3 °C 30.1in /  1019.9hPa Calm     89% 0in /  0.0mm
22:02 32.7 °F /  0.4 °C 30 °F /  -1.1 °C 30.1in /  1019.9hPa Calm   2mph /  3.2km/h 90% 0in /  0.0mm
22:07 32.7 °F /  0.4 °C 30 °F /  -1.1 °C 30.1in /  1019.9hPa WSW 2.5mph /  4.0km/h 2.7mph /  4.3km/h 90% 0in /  0.0mm
22:12 32.7 °F /  0.4 °C 30 °F /  -1.1 °C 30.1in /  1019.9hPa West 2.9mph /  4.7km/h 4mph /  6.4km/h 90% 0in /  0.0mm
22:17 33.1 °F /  0.6 °C 30.7 °F /  -0.7 °C 30.1in /  1019.9hPa Calm   4mph /  6.4km/h 91% 0in /  0.0mm
22:22 33.3 °F /  0.7 °C 30.9 °F /  -0.6 °C 30.1in /  1019.9hPa Calm   3.4mph /  5.5km/h 91% 0in /  0.0mm
22:27 33.3 °F /  0.7 °C 31.3 °F /  -0.4 °C 30.1in /  1019.9hPa Calm   1.1mph /  1.8km/h 92% 0in /  0.0mm
22:32 33.1 °F /  0.6 °C 30.7 °F /  -0.7 °C 30.1in /  1019.9hPa Calm   1.1mph /  1.8km/h 91% 0in /  0.0mm
22:37 32.7 °F /  0.4 °C 30.4 °F /  -0.9 °C 30.2in /  1020.9hPa Calm     91% 0in /  0.0mm
22:42 32.5 °F /  0.3 °C 30.2 °F /  -1.0 °C 30.2in /  1020.9hPa Calm     91% 0in /  0.0mm
22:47 32.5 °F /  0.3 °C 30.2 °F /  -1.0 °C 30.2in /  1020.9hPa Calm     91% 0in /  0.0mm
22:52 32.5 °F /  0.3 °C 30.2 °F /  -1.0 °C 30.2in /  1021.9hPa Calm     91% 0in /  0.0mm
22:57 32.5 °F /  0.3 °C 30.6 °F /  -0.8 °C 30.2in /  1021.9hPa Calm   3.6mph /  5.8km/h 92% 0in /  0.0mm
23:02 32.5 °F /  0.3 °C 30.6 °F /  -0.8 °C 30.2in /  1021.9hPa Calm   3.6mph /  5.8km/h 92% 0in /  0.0mm
23:07 32.5 °F /  0.3 °C 30.6 °F /  -0.8 °C 30.2in /  1020.9hPa Calm   3.6mph /  5.8km/h 92% 0in /  0.0mm
23:12 32.5 °F /  0.3 °C 30.7 °F /  -0.7 °C 30.2in /  1020.9hPa Calm   1.1mph /  1.8km/h 93% 0in /  0.0mm
23:17 32.5 °F /  0.3 °C 30.7 °F /  -0.7 °C 30.2in /  1020.9hPa Calm     93% 0in /  0.0mm
23:22 32.4 °F /  0.2 °C 30.6 °F /  -0.8 °C 30.2in /  1020.9hPa Calm     93% 0in /  0.0mm
23:27 32.2 °F /  0.1 °C 30.4 °F /  -0.9 °C 30.2in /  1020.9hPa Calm     93% 0in /  0.0mm
23:32 32.2 °F /  0.1 °C 30.4 °F /  -0.9 °C 30.2in /  1020.9hPa Calm     93% 0in /  0.0mm
23:37 32.2 °F /  0.1 °C 30.4 °F /  -0.9 °C 30.2in /  1020.9hPa Calm     93% 0in /  0.0mm
23:42 32.2 °F /  0.1 °C 30.6 °F /  -0.8 °C 30.2in /  1020.9hPa Calm     94% 0in /  0.0mm
23:47 32 °F /  0.0 °C 30.6 °F /  -0.8 °C 30.2in /  1020.9hPa Calm     94% 0in /  0.0mm
23:52 31.8 °F /  -0.1 °C 30.4 °F /  -0.9 °C 30.2in /  1020.9hPa Calm   2.7mph /  4.3km/h 94% 0in /  0.0mm
23:57 32.2 °F /  0.1 °C 30.6 °F /  -0.8 °C 30.2in /  1020.9hPa SSW 3.4mph /  5.5km/h 3.4mph /  5.5km/h 94% 0in /  0.0mm
Données Historique de Météo Turbie

Mise a jour : 20/05/2018 15:56:12
Généré par Cumulus 1.9.4 (1099)